Time;durP1;ratioP1;P1;durP2;ratioP2;P2;SDS_P1;SDS_P2;PMS_P1;PMS_P2;Temp;Humidity;BMP_temperature;BMP_pressure;BME280_temperature;BME280_humidity;BME280_pressure;Samples;Min_cycle;Max_cycle;Signal;HPM_P1;HPM_P2
2023/07/23 00:01:35;;;;;;;28.85;20.08;;;13.80;99.90;;;;;;5007155;28;20029;-76
2023/07/23 00:04:01;;;;;;;33.63;21.73;;;13.90;99.90;;;;;;4995032;28;20037;-77
2023/07/23 00:06:27;;;;;;;35.72;21.60;;;13.90;99.90;;;;;;4997300;28;20037;-77
2023/07/23 00:08:53;;;;;;;28.73;19.98;;;13.90;99.90;;;;;;4995057;28;20505;-77
2023/07/23 00:11:18;;;;;;;32.45;21.75;;;13.90;99.90;;;;;;4995982;28;20080;-77
2023/07/23 00:13:44;;;;;;;17.60;15.23;;;13.90;99.90;;;;;;4995812;28;20038;-77
2023/07/23 00:16:10;;;;;;;22.80;18.25;;;13.90;99.90;;;;;;4986534;28;20112;-76
2023/07/23 00:18:36;;;;;;;25.05;19.73;;;13.90;99.90;;;;;;5012068;28;20049;-77
2023/07/23 00:21:02;;;;;;;28.27;19.30;;;13.90;99.90;;;;;;5016772;28;20034;-77
2023/07/23 00:23:28;;;;;;;18.88;16.17;;;13.90;99.90;;;;;;5010851;28;20037;-76
2023/07/23 00:25:54;;;;;;;20.30;17.05;;;13.90;99.90;;;;;;4993452;28;20049;-77
2023/07/23 00:28:21;;;;;;;22.58;17.85;;;13.90;99.90;;;;;;4995336;28;20081;-77
2023/07/23 00:30:46;;;;;;;17.17;15.05;;;13.90;99.90;;;;;;5004845;28;20482;-76
2023/07/23 00:33:12;;;;;;;22.40;17.45;;;14.00;99.90;;;;;;5003120;28;20048;-77
2023/07/23 00:35:38;;;;;;;26.52;19.70;;;13.90;99.90;;;;;;4989333;28;20041;-77
2023/07/23 00:38:06;;;;;;;22.45;17.05;;;14.00;99.90;;;;;;5002525;28;20064;-77
2023/07/23 00:40:32;;;;;;;32.33;19.83;;;13.90;99.90;;;;;;4996010;28;20095;-77
2023/07/23 00:43:00;;;;;;;22.95;18.75;;;14.00;99.90;;;;;;5000548;28;20034;-77
2023/07/23 00:45:26;;;;;;;22.20;18.00;;;14.00;99.90;;;;;;5006043;28;20038;-78
2023/07/23 00:47:52;;;;;;;34.70;21.73;;;14.00;99.90;;;;;;4990371;28;20038;-77
2023/07/23 00:50:18;;;;;;;30.45;19.83;;;14.00;99.90;;;;;;4998460;28;20060;-77
2023/07/23 00:52:44;;;;;;;26.48;18.50;;;14.00;99.90;;;;;;4994249;28;20140;-77
2023/07/23 00:55:09;;;;;;;29.63;19.80;;;14.00;99.90;;;;;;4992349;28;20495;-77
2023/07/23 00:57:35;;;;;;;30.73;21.15;;;14.00;99.90;;;;;;5011747;28;20037;-75
2023/07/23 01:00:01;;;;;;;34.40;22.10;;;14.00;99.90;;;;;;5003819;28;20460;-77
2023/07/23 01:02:27;;;;;;;31.38;21.10;;;14.00;99.90;;;;;;5011682;28;20045;-77
2023/07/23 01:04:56;;;;;;;35.30;22.58;;;13.90;99.90;;;;;;4994038;28;20082;-77
2023/07/23 01:07:25;;;;;;;33.53;22.80;;;13.90;99.90;;;;;;4987825;28;20045;-77
2023/07/23 01:09:54;;;;;;;35.28;21.90;;;13.90;99.90;;;;;;4991889;28;20045;-77
2023/07/23 01:12:20;;;;;;;40.47;23.38;;;13.90;99.90;;;;;;5006122;28;20064;-76
2023/07/23 01:14:46;;;;;;;34.63;22.05;;;13.90;99.90;;;;;;4998376;28;20041;-77
2023/07/23 01:17:17;;;;;;;34.97;21.45;;;14.00;99.90;;;;;;4997900;28;20036;-77
2023/07/23 01:19:43;;;;;;;34.72;22.85;;;13.90;99.90;;;;;;4999859;28;20080;-78
2023/07/23 01:22:12;;;;;;;50.17;26.60;;;13.90;99.90;;;;;;4989533;28;20038;-77
2023/07/23 01:24:37;;;;;;;42.20;23.85;;;13.90;99.90;;;;;;5022982;28;20041;-77
2023/07/23 01:27:03;;;;;;;29.25;21.77;;;13.90;99.90;;;;;;5022550;28;20099;-77
2023/07/23 01:29:29;;;;;;;31.17;22.50;;;13.90;99.90;;;;;;5005637;28;20049;-77
2023/07/23 01:31:55;;;;;;;27.48;20.55;;;13.90;99.90;;;;;;5021423;28;20892;-77
2023/07/23 01:34:24;;;;;;;25.20;20.25;;;13.90;99.90;;;;;;5014249;28;20041;-77
2023/07/23 01:36:51;;;;;;;32.28;21.75;;;13.90;99.90;;;;;;5005619;28;20040;-77
2023/07/23 01:39:20;;;;;;;44.28;24.90;;;13.90;99.90;;;;;;5007695;28;20041;-77
2023/07/23 01:41:46;;;;;;;31.85;21.83;;;13.90;99.90;;;;;;5006065;28;20042;-77
2023/07/23 01:44:12;;;;;;;43.25;24.55;;;13.90;99.90;;;;;;5045866;28;20116;-77
2023/07/23 01:46:38;;;;;;;34.72;24.33;;;13.90;99.90;;;;;;5021230;28;20057;-77
2023/07/23 01:49:03;;;;;;;37.50;24.52;;;13.90;99.90;;;;;;5004157;28;20729;-77
2023/07/23 01:51:32;;;;;;;42.30;26.23;;;13.80;99.90;;;;;;4995643;28;20038;-77
2023/07/23 01:53:57;;;;;;;37.35;25.13;;;13.80;99.90;;;;;;5020030;28;20060;-76
2023/07/23 01:56:23;;;;;;;41.15;26.05;;;13.80;99.90;;;;;;4998196;28;20042;-77
2023/07/23 01:58:49;;;;;;;35.25;23.88;;;13.90;99.90;;;;;;4987091;28;20042;-76
2023/07/23 02:01:15;;;;;;;47.13;27.92;;;13.90;99.90;;;;;;4986236;28;20046;-77
2023/07/23 02:03:40;;;;;;;34.80;25.08;;;13.90;99.90;;;;;;5003524;28;20100;-77
2023/07/23 02:06:08;;;;;;;30.98;23.45;;;13.90;99.90;;;;;;5008553;28;20041;-78
2023/07/23 02:08:37;;;;;;;42.78;25.73;;;13.90;99.90;;;;;;5008626;28;20048;-77
2023/07/23 02:11:03;;;;;;;36.13;25.42;;;13.90;99.90;;;;;;4997611;28;20034;-78
2023/07/23 02:13:29;;;;;;;40.60;26.80;;;13.90;99.90;;;;;;5004254;28;20048;-78
2023/07/23 02:15:55;;;;;;;52.50;28.80;;;13.90;99.90;;;;;;5007422;28;20045;-78
2023/07/23 02:18:23;;;;;;;34.05;24.63;;;13.90;99.90;;;;;;5005544;28;20033;-77
2023/07/23 02:20:50;;;;;;;37.53;25.55;;;13.90;99.90;;;;;;5008916;28;20147;-77
2023/07/23 02:23:18;;;;;;;39.63;27.17;;;13.90;99.90;;;;;;5008679;28;20080;-76
2023/07/23 02:25:47;;;;;;;94.38;35.88;;;13.90;99.90;;;;;;5011030;28;20053;-76
2023/07/23 02:28:13;;;;;;;34.13;25.02;;;13.90;99.90;;;;;;5008307;28;20052;-77
2023/07/23 02:30:41;;;;;;;32.00;23.75;;;13.90;99.90;;;;;;5007581;28;20041;-77
2023/07/23 02:33:07;;;;;;;24.23;21.60;;;14.00;99.90;;;;;;5006926;28;20047;-77
2023/07/23 02:35:39;;;;;;;59.75;32.25;;;13.90;99.90;;;;;;5004221;28;20469;-77
2023/07/23 02:38:05;;;;;;;40.40;28.50;;;13.90;99.90;;;;;;5007245;28;20083;-77
2023/07/23 02:40:34;;;;;;;23.40;21.00;;;13.90;99.90;;;;;;5004812;28;20560;-77
2023/07/23 02:43:01;;;;;;;41.95;28.30;;;13.90;99.90;;;;;;5023343;23;20658;-75
2023/07/23 02:45:27;;;;;;;87.53;36.95;;;13.90;99.90;;;;;;5007567;28;20546;-76
2023/07/23 02:47:52;;;;;;;37.00;26.67;;;13.90;99.90;;;;;;5020821;28;20171;-75
2023/07/23 02:50:18;;;;;;;32.72;25.13;;;13.90;99.90;;;;;;5017914;28;20076;-75
2023/07/23 02:52:44;;;;;;;56.10;31.52;;;13.90;99.90;;;;;;5044113;28;20571;-75
2023/07/23 02:55:09;;;;;;;27.80;24.08;;;13.90;99.90;;;;;;5045721;28;20077;-75
2023/07/23 02:57:35;;;;;;;46.05;29.52;;;13.90;99.90;;;;;;5039748;28;20038;-75
2023/07/23 03:00:02;;;;;;;26.45;22.80;;;13.90;99.90;;;;;;5013211;28;20580;-76
2023/07/23 03:02:28;;;;;;;34.35;24.98;;;13.90;99.90;;;;;;5029021;28;20037;-75
2023/07/23 03:04:54;;;;;;;26.10;22.98;;;13.90;99.90;;;;;;5045011;28;20477;-75
2023/07/23 03:07:19;;;;;;;41.00;28.80;;;13.90;99.90;;;;;;5014164;28;20125;-75
2023/07/23 03:09:46;;;;;;;32.70;25.63;;;13.90;99.90;;;;;;5015008;28;20103;-75
2023/07/23 03:12:11;;;;;;;29.67;23.95;;;13.90;99.90;;;;;;5010300;28;20037;-75
2023/07/23 03:14:37;;;;;;;29.60;23.17;;;13.80;99.90;;;;;;5016869;28;20095;-75
2023/07/23 03:17:03;;;;;;;38.10;28.33;;;13.90;99.90;;;;;;5007466;28;20112;-75
2023/07/23 03:19:28;;;;;;;40.28;29.30;;;13.90;99.90;;;;;;5033114;28;20099;-75
2023/07/23 03:21:54;;;;;;;57.80;33.70;;;13.90;99.90;;;;;;5026850;28;20481;-75
2023/07/23 03:24:19;;;;;;;35.08;27.67;;;13.80;99.90;;;;;;5013520;28;20387;-75
2023/07/23 03:26:45;;;;;;;48.55;32.28;;;13.80;99.90;;;;;;5025201;28;20037;-76
2023/07/23 03:29:11;;;;;;;47.90;32.50;;;13.80;99.90;;;;;;5001517;28;20046;-75
2023/07/23 03:31:36;;;;;;;37.15;28.75;;;13.80;99.90;;;;;;5049479;28;20121;-75
2023/07/23 03:34:02;;;;;;;38.17;28.35;;;13.90;99.90;;;;;;5016442;28;20528;-76
2023/07/23 03:36:28;;;;;;;42.17;30.58;;;13.80;99.90;;;;;;5009609;28;20034;-75
2023/07/23 03:38:53;;;;;;;43.05;31.05;;;13.80;99.90;;;;;;5016245;28;20549;-75
2023/07/23 03:41:19;;;;;;;47.47;32.70;;;13.80;99.90;;;;;;5049512;28;20042;-75
2023/07/23 03:43:44;;;;;;;33.15;26.33;;;13.80;99.90;;;;;;5031136;28;20512;-75
2023/07/23 03:46:10;;;;;;;35.40;28.52;;;13.80;99.90;;;;;;5043747;28;20030;-75
2023/07/23 03:48:36;;;;;;;26.75;23.67;;;13.80;99.90;;;;;;5029227;28;20041;-75
2023/07/23 03:51:01;;;;;;;41.42;30.10;;;13.90;99.90;;;;;;5014181;28;20373;-75
2023/07/23 03:53:27;;;;;;;54.88;35.42;;;13.80;99.90;;;;;;5012937;28;20056;-75
2023/07/23 03:55:52;;;;;;;58.22;33.67;;;13.80;99.90;;;;;;5008733;28;20116;-75
2023/07/23 03:58:18;;;;;;;58.00;35.30;;;13.80;99.90;;;;;;5040883;28;20037;-76
2023/07/23 04:00:43;;;;;;;60.65;35.88;;;13.80;99.90;;;;;;5014396;28;20038;-75
2023/07/23 04:03:09;;;;;;;55.50;34.95;;;13.90;99.90;;;;;;5008931;28;20088;-75
2023/07/23 04:05:35;;;;;;;82.22;40.58;;;13.90;99.90;;;;;;5015102;28;20037;-76
2023/07/23 04:08:02;;;;;;;29.95;26.77;;;13.90;99.90;;;;;;4990586;28;20049;-76
2023/07/23 04:10:27;;;;;;;52.80;35.47;;;13.90;99.90;;;;;;5048778;28;20053;-75
2023/07/23 04:12:53;;;;;;;47.63;33.78;;;13.90;99.90;;;;;;5048562;28;20398;-75
2023/07/23 04:15:19;;;;;;;41.38;32.55;;;13.90;99.90;;;;;;5009046;28;20081;-76
2023/07/23 04:17:44;;;;;;;59.25;37.08;;;13.90;99.90;;;;;;4997129;28;20124;-75
2023/07/23 04:20:10;;;;;;;29.25;26.27;;;13.90;99.90;;;;;;5015609;28;20543;-75
2023/07/23 04:22:36;;;;;;;39.72;30.98;;;13.90;99.90;;;;;;5047389;28;20076;-75
2023/07/23 04:25:01;;;;;;;80.45;43.95;;;13.80;99.90;;;;;;5040317;28;20042;-76
2023/07/23 04:27:27;;;;;;;51.53;37.67;;;13.90;99.90;;;;;;5023550;28;20414;-76
2023/07/23 04:29:53;;;;;;;46.55;33.90;;;13.90;99.90;;;;;;5013500;28;20045;-75
2023/07/23 04:32:19;;;;;;;80.28;43.60;;;13.90;99.90;;;;;;5048300;28;20053;-76
2023/07/23 04:34:45;;;;;;;37.05;31.10;;;13.90;99.90;;;;;;5015389;28;20045;-75
2023/07/23 04:37:11;;;;;;;47.58;36.03;;;13.90;99.90;;;;;;5048417;28;20033;-75
2023/07/23 04:39:37;;;;;;;48.95;37.75;;;13.90;99.90;;;;;;5039547;28;20406;-75
2023/07/23 04:42:03;;;;;;;72.93;44.10;;;13.90;99.90;;;;;;5038085;28;20037;-75
2023/07/23 04:44:29;;;;;;;58.50;39.95;;;13.90;99.90;;;;;;5010696;28;20037;-76
2023/07/23 04:46:54;;;;;;;56.42;39.88;;;13.90;99.90;;;;;;5047960;28;20040;-75
2023/07/23 04:49:20;;;;;;;77.18;44.13;;;13.90;99.90;;;;;;5031556;28;20060;-75
2023/07/23 04:51:45;;;;;;;45.03;35.33;;;13.90;99.90;;;;;;5047406;28;20080;-75
2023/07/23 04:54:11;;;;;;;53.55;38.20;;;14.00;99.90;;;;;;5006982;28;20026;-75
2023/07/23 04:56:37;;;;;;;45.25;37.58;;;14.00;99.90;;;;;;5046218;28;20038;-76
2023/07/23 04:59:03;;;;;;;39.78;35.63;;;13.90;99.90;;;;;;5039576;28;20095;-75
2023/07/23 05:01:28;;;;;;;53.50;41.13;;;14.00;99.90;;;;;;5013574;28;20033;-75
2023/07/23 05:03:54;;;;;;;37.97;33.97;;;14.00;99.90;;;;;;5047657;28;20044;-75
2023/07/23 05:06:19;;;;;;;49.30;38.25;;;14.00;99.90;;;;;;5007080;28;20041;-75
2023/07/23 05:08:45;;;;;;;58.85;43.58;;;14.00;99.90;;;;;;5011419;28;20481;-75
2023/07/23 05:11:11;;;;;;;103.97;54.22;;;14.10;99.90;;;;;;5047380;28;20121;-75
2023/07/23 05:13:36;;;;;;;34.78;31.17;;;14.10;99.90;;;;;;5047630;28;20772;-76
2023/07/23 05:16:02;;;;;;;49.47;37.85;;;14.20;99.90;;;;;;5046502;28;20373;-75
2023/07/23 05:18:29;;;;;;;34.75;31.17;;;14.20;99.90;;;;;;5014460;28;20041;-75
2023/07/23 05:20:54;;;;;;;58.47;42.42;;;14.20;99.90;;;;;;5014456;28;20532;-75
2023/07/23 05:23:20;;;;;;;105.47;52.90;;;14.30;99.90;;;;;;5040669;28;20041;-75
2023/07/23 05:25:46;;;;;;;57.95;42.83;;;14.30;99.90;;;;;;5021426;28;20046;-75
2023/07/23 05:28:12;;;;;;;42.17;34.83;;;14.30;99.90;;;;;;5029818;28;20044;-75
2023/07/23 05:30:38;;;;;;;34.70;31.00;;;14.30;99.90;;;;;;5021851;28;20457;-75
2023/07/23 05:33:04;;;;;;;66.30;44.95;;;14.40;99.90;;;;;;5041213;28;20042;-75
2023/07/23 05:35:29;;;;;;;41.00;35.03;;;14.40;99.90;;;;;;5003647;28;20456;-75
2023/07/23 05:37:55;;;;;;;32.33;28.98;;;14.40;99.90;;;;;;5011146;28;20103;-75
2023/07/23 05:40:21;;;;;;;48.47;38.83;;;14.50;99.90;;;;;;5041275;28;20037;-75
2023/07/23 05:42:47;;;;;;;55.80;42.28;;;14.50;99.90;;;;;;5036970;28;20464;-76
2023/07/23 05:45:12;;;;;;;38.17;33.95;;;14.60;99.90;;;;;;5000155;28;20128;-76
2023/07/23 05:47:38;;;;;;;38.95;34.75;;;14.70;99.90;;;;;;5013827;28;20045;-75
2023/07/23 05:50:04;;;;;;;33.13;29.67;;;14.70;99.90;;;;;;5013561;28;20041;-76
2023/07/23 05:52:30;;;;;;;32.17;28.88;;;14.80;99.90;;;;;;5012425;28;20494;-75
2023/07/23 05:54:55;;;;;;;34.88;30.98;;;14.80;99.90;;;;;;5003034;28;20038;-76
2023/07/23 05:57:21;;;;;;;36.15;31.60;;;14.80;99.90;;;;;;4999821;28;20036;-75
2023/07/23 05:59:46;;;;;;;45.15;37.67;;;14.80;99.90;;;;;;5038608;28;20456;-75
2023/07/23 06:02:12;;;;;;;37.60;33.55;;;14.90;99.90;;;;;;5020076;28;20120;-76
2023/07/23 06:04:39;;;;;;;34.67;30.92;;;14.90;99.90;;;;;;5038530;28;20159;-75
2023/07/23 06:07:05;;;;;;;34.55;29.10;;;15.00;99.90;;;;;;5046374;28;20481;-75
2023/07/23 06:09:30;;;;;;;31.77;28.38;;;15.10;99.90;;;;;;5005597;28;20068;-76
2023/07/23 06:11:56;;;;;;;46.00;34.67;;;15.10;99.90;;;;;;5012558;28;20485;-75
2023/07/23 06:14:21;;;;;;;34.85;29.50;;;15.10;99.90;;;;;;5046470;28;20048;-76
2023/07/23 06:16:47;;;;;;;25.17;20.98;;;15.20;99.90;;;;;;5009750;28;20046;-76
2023/07/23 06:19:13;;;;;;;27.73;24.67;;;15.20;99.90;;;;;;5013922;28;20033;-76
2023/07/23 06:21:39;;;;;;;23.20;20.80;;;15.30;99.90;;;;;;5030048;28;20052;-76
2023/07/23 06:24:05;;;;;;;19.50;17.60;;;15.30;99.90;;;;;;5036724;28;20033;-76
2023/07/23 06:26:30;;;;;;;35.35;25.40;;;15.30;99.90;;;;;;4998005;28;20045;-76
2023/07/23 06:28:56;;;;;;;24.17;21.08;;;15.30;99.90;;;;;;5000261;28;20085;-76
2023/07/23 06:31:22;;;;;;;28.08;22.83;;;15.30;99.90;;;;;;5008379;28;20057;-76
2023/07/23 06:33:48;;;;;;;39.03;25.65;;;15.30;99.90;;;;;;5042772;28;20409;-76
2023/07/23 06:36:13;;;;;;;18.45;16.35;;;15.30;99.90;;;;;;5006816;28;20034;-76
2023/07/23 06:38:39;;;;;;;19.30;17.25;;;15.30;99.90;;;;;;5013552;28;20041;-76
2023/07/23 06:41:05;;;;;;;23.65;20.23;;;15.30;99.90;;;;;;5049934;28;20544;-76
2023/07/23 06:43:31;;;;;;;28.70;21.75;;;15.30;99.90;;;;;;5008791;28;20046;-75
2023/07/23 06:45:57;;;;;;;24.15;21.35;;;15.40;99.90;;;;;;5016412;28;20063;-75
2023/07/23 06:48:27;;;;;;;33.78;25.08;;;15.40;99.90;;;;;;5049125;28;20398;-75
2023/07/23 06:50:54;;;;;;;28.35;21.02;;;15.40;99.90;;;;;;5005989;28;20045;-76
2023/07/23 06:53:20;;;;;;;26.92;21.58;;;15.40;99.90;;;;;;5016226;28;20128;-76
2023/07/23 06:56:01;;;;;;;28.80;21.02;;;15.40;99.90;;;;;;5005698;28;20157;-76
2023/07/23 06:58:28;;;;;;;22.00;18.65;;;15.40;99.90;;;;;;5033539;28;20041;-76
2023/07/23 07:00:54;;;;;;;31.75;21.15;;;15.30;99.90;;;;;;5017113;28;20037;-75
2023/07/23 07:03:20;;;;;;;33.22;21.25;;;15.30;99.90;;;;;;5009771;28;20045;-76
2023/07/23 07:05:46;;;;;;;40.05;25.98;;;15.30;99.90;;;;;;5030843;28;20033;-76
2023/07/23 07:08:12;;;;;;;21.48;17.20;;;15.30;99.90;;;;;;5005611;28;20045;-76
2023/07/23 07:10:37;;;;;;;23.30;18.50;;;15.30;99.90;;;;;;5016856;28;20535;-76
2023/07/23 07:13:03;;;;;;;22.90;17.48;;;15.30;99.90;;;;;;5013865;28;20041;-75
2023/07/23 07:15:29;;;;;;;20.83;17.67;;;15.30;99.90;;;;;;5015242;28;20041;-75
2023/07/23 07:17:54;;;;;;;32.90;22.40;;;15.30;99.90;;;;;;5049303;28;20037;-75
2023/07/23 07:20:20;;;;;;;20.42;18.27;;;15.30;99.90;;;;;;5046355;28;20037;-75
2023/07/23 07:22:46;;;;;;;28.10;19.27;;;15.40;99.90;;;;;;5041275;28;20120;-75
2023/07/23 07:25:12;;;;;;;28.48;20.75;;;15.40;99.90;;;;;;5018130;28;20084;-75
2023/07/23 07:27:38;;;;;;;25.85;19.40;;;15.40;99.90;;;;;;5049285;28;20482;-75
2023/07/23 07:30:04;;;;;;;28.08;19.25;;;15.40;99.90;;;;;;5016133;28;20038;-74
2023/07/23 07:32:29;;;;;;;21.10;18.13;;;15.40;99.90;;;;;;5024393;28;20045;-74
2023/07/23 07:34:55;;;;;;;25.10;19.23;;;15.40;99.90;;;;;;5007672;28;20379;-74
2023/07/23 07:37:20;;;;;;;22.33;17.45;;;15.40;99.90;;;;;;5044384;28;20188;-75
2023/07/23 07:39:46;;;;;;;39.85;22.33;;;15.40;99.90;;;;;;5015578;28;20040;-75
2023/07/23 07:42:11;;;;;;;18.42;15.60;;;15.30;99.90;;;;;;5006751;28;20034;-75
2023/07/23 07:44:37;;;;;;;21.55;17.75;;;15.30;99.90;;;;;;5040045;28;20450;-75
2023/07/23 07:47:03;;;;;;;33.38;21.58;;;15.20;99.90;;;;;;5048468;28;20389;-74
2023/07/23 07:49:28;;;;;;;22.50;17.88;;;15.20;99.90;;;;;;5007361;28;20030;-77
2023/07/23 07:51:54;;;;;;;26.55;18.90;;;15.20;99.90;;;;;;5001502;28;20046;-76
2023/07/23 07:54:20;;;;;;;27.77;19.00;;;15.20;99.90;;;;;;5048993;28;20049;-77
2023/07/23 07:56:45;;;;;;;32.65;21.42;;;15.30;99.90;;;;;;5048937;28;20120;-76
2023/07/23 07:59:11;;;;;;;25.25;19.23;;;15.30;99.90;;;;;;5015963;28;20048;-77
2023/07/23 08:01:37;;;;;;;25.40;19.20;;;15.40;99.90;;;;;;5048511;28;20033;-77
2023/07/23 08:04:06;;;;;;;19.20;16.27;;;15.40;99.90;;;;;;5007197;28;20120;-78
2023/07/23 08:06:33;;;;;;;24.85;19.35;;;15.50;99.90;;;;;;5030831;28;20490;-77
2023/07/23 08:09:02;;;;;;;24.60;18.20;;;15.60;99.90;;;;;;5023408;28;20129;-77
2023/07/23 08:11:28;;;;;;;23.23;17.55;;;15.60;99.90;;;;;;5026586;28;20134;-77
2023/07/23 08:13:54;;;;;;;19.65;16.15;;;15.70;99.90;;;;;;5044705;28;20047;-77
2023/07/23 08:16:19;;;;;;;15.02;13.48;;;15.70;99.90;;;;;;5024774;28;20561;-77
2023/07/23 08:18:45;;;;;;;19.23;16.13;;;15.70;99.90;;;;;;5009843;28;20037;-77
2023/07/23 08:21:11;;;;;;;23.90;16.90;;;15.80;99.90;;;;;;5035188;28;20040;-78
2023/07/23 08:23:38;;;;;;;16.30;14.52;;;15.80;99.90;;;;;;5004674;28;20038;-77
2023/07/23 08:26:05;;;;;;;23.77;17.55;;;15.70;99.90;;;;;;4994612;28;20493;-77
2023/07/23 08:28:34;;;;;;;17.63;14.95;;;15.70;99.90;;;;;;5003903;28;20038;-77
2023/07/23 08:31:01;;;;;;;22.55;14.90;;;15.70;99.90;;;;;;5049652;28;20037;-77
2023/07/23 08:33:28;;;;;;;19.25;15.60;;;15.60;99.90;;;;;;5014059;28;20049;-76
2023/07/23 08:35:55;;;;;;;19.60;15.65;;;15.60;99.90;;;;;;5011770;28;20037;-76
2023/07/23 08:38:21;;;;;;;17.38;14.90;;;15.50;99.90;;;;;;5021668;28;20124;-76
2023/07/23 08:40:55;;;;;;;20.90;16.63;;;15.50;99.90;;;;;;5011774;28;20385;-76
2023/07/23 08:43:37;;;;;;;16.88;14.25;;;15.50;99.90;;;;;;5069128;23;20041;-86
2023/07/23 08:46:24;;;;;;;25.90;17.88;;;15.50;99.90;;;;;;5015814;28;20045;-86
2023/07/23 08:48:56;;;;;;;18.63;15.23;;;15.50;99.90;;;;;;5013468;28;20431;-85
2023/07/23 08:51:39;;;;;;;18.00;14.80;;;15.60;99.90;;;;;;5035018;28;20607;-86
2023/07/23 08:54:06;;;;;;;16.60;14.88;;;15.70;99.90;;;;;;5047458;28;20036;-85
2023/07/23 08:56:33;;;;;;;17.35;14.20;;;15.70;99.90;;;;;;5037772;28;20041;-85
2023/07/23 08:59:02;;;;;;;21.10;15.45;;;15.70;99.90;;;;;;5016278;28;20044;-85
2023/07/23 09:01:33;;;;;;;22.10;16.35;;;15.70;99.90;;;;;;5004299;28;20033;-85
2023/07/23 09:03:59;;;;;;;18.50;14.23;;;15.70;99.90;;;;;;5018190;28;20116;-85
2023/07/23 09:06:28;;;;;;;18.95;15.40;;;15.80;99.90;;;;;;5011327;28;20551;-87
2023/07/23 09:08:54;;;;;;;13.95;12.52;;;15.80;99.90;;;;;;5017308;28;20044;-86
2023/07/23 09:11:19;;;;;;;15.70;13.70;;;15.80;99.90;;;;;;5027992;28;20044;-86
2023/07/23 09:13:45;;;;;;;15.80;13.73;;;15.80;99.90;;;;;;5028829;28;20091;-81
2023/07/23 09:16:10;;;;;;;13.48;12.02;;;15.80;99.90;;;;;;5043473;28;20041;-83
2023/07/23 09:18:40;;;;;;;13.18;11.75;;;15.80;99.90;;;;;;5020521;28;20038;-81
2023/07/23 09:21:06;;;;;;;12.35;11.07;;;15.80;99.90;;;;;;5021838;28;20497;-81
2023/07/23 09:23:33;;;;;;;12.35;9.95;;;15.80;99.90;;;;;;5039240;28;20057;-82
2023/07/23 09:25:59;;;;;;;12.35;11.05;;;15.90;99.90;;;;;;5032936;28;20044;-80
2023/07/23 09:28:26;;;;;;;10.27;9.27;;;15.80;99.90;;;;;;5023903;28;20033;-81
2023/07/23 09:30:59;;;;;;;11.77;10.57;;;15.90;99.90;;;;;;5030419;28;20068;-81
2023/07/23 09:33:43;;;;;;;10.75;9.65;;;15.90;99.90;;;;;;5029348;28;20040;-81
2023/07/23 09:36:10;;;;;;;9.57;8.68;;;16.00;99.90;;;;;;5023788;28;20042;-81
2023/07/23 09:38:38;;;;;;;11.73;10.20;;;16.00;99.90;;;;;;5022660;28;20408;-80
2023/07/23 09:41:04;;;;;;;11.35;10.13;;;15.90;99.90;;;;;;5000521;28;20029;-81
2023/07/23 09:43:33;;;;;;;11.38;10.20;;;16.00;99.90;;;;;;5043379;28;20048;-80
2023/07/23 09:46:00;;;;;;;11.35;9.88;;;16.20;99.90;;;;;;5032321;28;20041;-80
2023/07/23 09:48:33;;;;;;;10.30;9.25;;;16.10;99.90;;;;;;5030194;28;20110;-80
2023/07/23 09:51:02;;;;;;;11.25;10.15;;;16.10;99.90;;;;;;5030984;28;20037;-80
2023/07/23 09:53:38;;;;;;;10.23;9.23;;;16.20;99.90;;;;;;5021851;28;20118;-81
2023/07/23 09:56:04;;;;;;;9.95;8.73;;;16.30;99.90;;;;;;5018833;28;20501;-80
2023/07/23 09:58:34;;;;;;;10.43;8.70;;;16.20;99.90;;;;;;5022192;28;20039;-80
2023/07/23 10:01:00;;;;;;;11.25;10.07;;;16.10;99.90;;;;;;5013733;28;20457;-80
2023/07/23 10:03:27;;;;;;;10.18;9.15;;;16.10;99.90;;;;;;5022382;28;20133;-80
2023/07/23 10:05:52;;;;;;;9.73;8.80;;;16.10;99.90;;;;;;5017985;28;20068;-80
2023/07/23 10:08:20;;;;;;;9.80;8.90;;;16.10;99.90;;;;;;5005661;28;20151;-81
2023/07/23 10:10:45;;;;;;;11.50;10.30;;;16.10;99.90;;;;;;5028506;28;20403;-80
2023/07/23 10:13:11;;;;;;;11.00;9.93;;;16.10;99.90;;;;;;5026845;28;20041;-81
2023/07/23 10:15:38;;;;;;;10.95;9.73;;;16.00;99.90;;;;;;5015238;28;20115;-80
2023/07/23 10:18:06;;;;;;;11.40;10.30;;;16.00;99.90;;;;;;5036587;28;20237;-82
2023/07/23 10:20:54;;;;;;;10.73;9.63;;;16.10;99.90;;;;;;5034699;28;20045;-84
2023/07/23 10:23:22;;;;;;;12.02;10.52;;;16.10;99.90;;;;;;5019160;28;20037;-83
2023/07/23 10:26:19;;;;;;;11.55;10.40;;;16.10;99.90;;;;;;5020951;28;20578;-83
2023/07/23 10:28:50;;;;;;;11.30;10.20;;;16.10;99.90;;;;;;5018342;28;20146;-82
2023/07/23 10:31:26;;;;;;;11.52;10.32;;;16.10;99.90;;;;;;5039393;28;20508;-82
2023/07/23 10:34:29;;;;;;;12.30;11.10;;;16.10;99.90;;;;;;5018747;28;20144;-83
2023/07/23 10:37:21;;;;;;;11.75;10.65;;;16.10;99.90;;;;;;5019679;28;20045;-83
2023/07/23 10:40:03;;;;;;;13.10;11.82;;;16.10;99.90;;;;;;5010033;28;20127;-82
2023/07/23 10:42:41;;;;;;;10.68;9.68;;;16.20;99.90;;;;;;5027705;28;20390;-83
2023/07/23 10:45:25;;;;;;;14.07;11.38;;;16.20;99.90;;;;;;5033901;28;20036;-82
2023/07/23 10:48:24;;;;;;;12.93;11.63;;;16.20;99.90;;;;;;5035832;28;20036;-82
2023/07/23 10:51:00;;;;;;;12.20;11.10;;;16.20;99.90;;;;;;5030038;28;20695;-82
2023/07/23 10:53:32;;;;;;;;;;;16.20;99.90;;;;;;5018982;28;20045;-82
2023/07/23 10:56:20;;;;;;;12.90;11.48;;;16.20;99.90;;;;;;5017702;28;19970;-83
2023/07/23 10:58:53;;;;;;;12.48;11.27;;;16.20;99.90;;;;;;5018747;28;20045;-82
2023/07/23 11:01:27;;;;;;;13.13;11.88;;;16.20;99.90;;;;;;5036417;28;20048;-84
2023/07/23 11:04:00;;;;;;;14.73;11.32;;;16.20;99.90;;;;;;5017809;28;20710;-82
2023/07/23 11:06:43;;;;;;;12.75;11.45;;;16.20;99.90;;;;;;5051953;28;20127;-82
2023/07/23 11:09:20;;;;;;;12.23;11.10;;;16.20;99.90;;;;;;5020381;28;20041;-83
2023/07/23 11:11:49;;;;;;;12.60;11.38;;;16.30;99.90;;;;;;5035436;28;20045;-83
2023/07/23 11:14:21;;;;;;;11.35;10.30;;;16.30;99.90;;;;;;5018886;28;20045;-82
2023/07/23 11:16:49;;;;;;;11.88;10.75;;;16.30;99.90;;;;;;5029857;28;20037;-81
2023/07/23 11:19:18;;;;;;;11.40;10.23;;;16.30;99.90;;;;;;5019407;28;20130;-81
2023/07/23 11:22:04;;;;;;;11.07;9.98;;;16.30;99.90;;;;;;5035926;28;20116;-82
2023/07/23 11:24:33;;;;;;;11.20;10.05;;;16.30;99.90;;;;;;5036705;28;20141;-81
2023/07/23 11:27:01;;;;;;;12.13;10.82;;;16.40;99.90;;;;;;5044898;28;20036;-81
2023/07/23 11:29:29;;;;;;;12.48;11.27;;;16.40;99.90;;;;;;5020216;28;20041;-81
2023/07/23 11:32:00;;;;;;;12.82;11.52;;;16.50;99.90;;;;;;5036531;28;20130;-81
2023/07/23 11:34:25;;;;;;;11.48;10.38;;;16.50;99.90;;;;;;5033680;28;20532;-81
2023/07/23 11:36:54;;;;;;;11.45;10.35;;;16.50;99.90;;;;;;5025973;28;20067;-80
2023/07/23 11:39:23;;;;;;;11.77;10.68;;;16.50;99.90;;;;;;5000003;28;20076;-81
2023/07/23 11:41:52;;;;;;;11.18;10.07;;;16.60;99.90;;;;;;5027051;28;20116;-81
2023/07/23 11:44:18;;;;;;;11.40;10.20;;;16.60;99.90;;;;;;5022266;28;20055;-81
2023/07/23 11:46:43;;;;;;;10.57;9.48;;;16.70;99.90;;;;;;5010470;28;20040;-81
2023/07/23 11:49:12;;;;;;;12.15;10.95;;;16.60;99.90;;;;;;5017888;28;20044;-80
2023/07/23 11:51:41;;;;;;;10.75;9.65;;;16.70;99.90;;;;;;5019240;28;20119;-81
2023/07/23 11:54:09;;;;;;;10.25;9.20;;;16.70;99.90;;;;;;5012355;28;20037;-81
2023/07/23 11:56:45;;;;;;;9.75;8.73;;;16.70;99.90;;;;;;5061936;28;20527;-81
2023/07/23 11:59:16;;;;;;;9.02;8.23;;;16.70;99.90;;;;;;5028457;28;20434;-82
2023/07/23 12:01:42;;;;;;;9.65;8.75;;;16.70;99.90;;;;;;5019214;28;20032;-81
2023/07/23 12:04:12;;;;;;;12.07;10.38;;;16.80;99.90;;;;;;5020661;28;20488;-82
2023/07/23 12:06:39;;;;;;;10.60;8.98;;;16.80;99.90;;;;;;5011149;28;20394;-82
2023/07/23 12:09:07;;;;;;;8.88;7.97;;;16.90;99.90;;;;;;4999625;28;20522;-82
2023/07/23 12:11:33;;;;;;;9.13;8.23;;;16.90;99.90;;;;;;5017441;28;20048;-80
2023/07/23 12:14:05;;;;;;;7.22;6.53;;;17.00;99.90;;;;;;5018407;28;20410;-80
2023/07/23 12:16:42;;;;;;;7.13;6.45;;;17.20;99.90;;;;;;5028278;28;20045;-79
2023/07/23 12:19:09;;;;;;;6.68;6.07;;;17.30;99.90;;;;;;5016008;28;20044;-80
2023/07/23 12:21:40;;;;;;;9.35;8.45;;;17.40;99.90;;;;;;5013950;28;20090;-82
2023/07/23 12:24:23;;;;;;;9.85;8.85;;;17.60;99.90;;;;;;5008035;28;20037;-81
2023/07/23 12:27:00;;;;;;;8.70;7.90;;;18.00;99.90;;;;;;5041656;28;20099;-82
2023/07/23 12:29:27;;;;;;;8.05;7.35;;;18.20;99.90;;;;;;5019135;28;20377;-81
2023/07/23 12:32:13;;;;;;;8.20;7.45;;;18.50;99.90;;;;;;5030436;28;20041;-81